createdAt,value
2018-11-06T00:00:25.231Z,99113.66
2018-11-06T00:05:43.752Z,99114.36
2018-11-06T00:11:02.340Z,99116.00
2018-11-06T00:16:20.838Z,99108.42
2018-11-06T00:21:39.426Z,99112.94
2018-11-06T00:26:57.900Z,99116.25
2018-11-06T00:32:16.411Z,99118.31
2018-11-06T00:37:34.951Z,99115.03
2018-11-06T00:42:53.695Z,99114.88
2018-11-06T00:48:12.325Z,99112.62
2018-11-06T00:53:30.842Z,99112.61
2018-11-06T00:58:49.377Z,99106.88
2018-11-06T01:04:09.304Z,99107.56
2018-11-06T01:09:27.863Z,99114.05
2018-11-06T01:14:46.384Z,99118.33
2018-11-06T01:20:08.323Z,99125.07
2018-11-06T01:25:26.782Z,99129.89
2018-11-06T01:30:45.343Z,99137.49
2018-11-06T01:36:03.880Z,99143.88
2018-11-06T01:41:22.524Z,99138.31
2018-11-06T01:46:41.005Z,99139.91
2018-11-06T01:51:59.510Z,99129.74
2018-11-06T01:57:18.028Z,99128.03
2018-11-06T02:02:36.845Z,99131.52
2018-11-06T02:07:55.366Z,99128.31
2018-11-06T02:13:13.902Z,99127.55
2018-11-06T02:18:32.392Z,99118.15
2018-11-06T02:23:50.980Z,99115.13
2018-11-06T02:29:09.528Z,99116.28
2018-11-06T02:34:28.071Z,99110.78
2018-11-06T02:39:46.570Z,99110.98
2018-11-06T02:45:06.439Z,99104.09
2018-11-06T02:50:24.954Z,99108.84
2018-11-06T02:55:43.489Z,99108.37
2018-11-06T03:01:02.006Z,99101.66
2018-11-06T03:06:20.475Z,99099.64
2018-11-06T03:11:39.004Z,99102.92
2018-11-06T03:16:57.586Z,99102.28
2018-11-06T03:22:16.129Z,99103.27
2018-11-06T03:27:34.888Z,99096.33
2018-11-06T03:32:53.457Z,99096.34
2018-11-06T03:38:11.950Z,99091.97
2018-11-06T03:43:30.518Z,99108.20
2018-11-06T03:48:49.058Z,99103.97
2018-11-06T03:54:07.601Z,99115.31
2018-11-06T03:59:26.135Z,99112.33
2018-11-06T04:04:44.741Z,99099.84
2018-11-06T04:10:03.579Z,99100.39
2018-11-06T04:15:22.142Z,99095.38
2018-11-06T04:20:40.678Z,99112.23
2018-11-06T04:25:59.263Z,99120.56
2018-11-06T04:31:17.863Z,99125.81
2018-11-06T04:36:36.372Z,99129.72
2018-11-06T04:41:54.878Z,99125.07
2018-11-06T04:47:13.373Z,99125.66
2018-11-06T04:52:31.882Z,99116.94
2018-11-06T04:57:50.374Z,99109.73
2018-11-06T05:03:08.870Z,99115.11
2018-11-06T05:08:27.649Z,99108.61
2018-11-06T05:13:46.174Z,99103.36
2018-11-06T05:19:04.695Z,99106.00
2018-11-06T05:24:23.208Z,99100.77
2018-11-06T05:29:41.691Z,99107.44
2018-11-06T05:35:00.382Z,99109.14
2018-11-06T05:40:30.055Z,99121.22
2018-11-06T05:45:48.575Z,99121.03
2018-11-06T05:51:07.099Z,99111.83
2018-11-06T05:56:26.038Z,99107.00
2018-11-06T06:01:44.533Z,99105.95
2018-11-06T06:07:03.111Z,99119.56
2018-11-06T06:12:21.697Z,99118.49
2018-11-06T06:17:40.202Z,99115.72
2018-11-06T06:22:58.782Z,99108.66
2018-11-06T06:28:17.331Z,99112.45
2018-11-06T06:33:36.010Z,99119.81
2018-11-06T06:38:54.517Z,99121.17
2018-11-06T06:44:13.006Z,99118.23
2018-11-06T06:49:31.670Z,99130.41
2018-11-06T06:54:50.236Z,99136.70
2018-11-06T07:00:10.957Z,99152.75
2018-11-06T07:05:29.518Z,99144.89
2018-11-06T07:10:48.177Z,99157.00
2018-11-06T07:16:07.323Z,99156.02
2018-11-06T07:21:25.828Z,99160.58
2018-11-06T07:26:44.314Z,99149.99
2018-11-06T07:32:02.830Z,99165.09
2018-11-06T07:37:21.351Z,99178.02
2018-11-06T07:42:40.050Z,99174.83
2018-11-06T07:47:58.571Z,99183.91
2018-11-06T07:53:17.116Z,99204.20
2018-11-06T07:58:35.622Z,99211.82
2018-11-06T08:03:54.282Z,99212.95
2018-11-06T08:09:12.860Z,99216.37
2018-11-06T08:14:31.469Z,99221.11
2018-11-06T08:19:50.605Z,99216.72
2018-11-06T08:25:10.738Z,99212.59
2018-11-06T08:30:29.284Z,99213.83
2018-11-06T08:35:47.746Z,99208.09
2018-11-06T08:41:06.393Z,99219.91
2018-11-06T08:46:24.891Z,99219.60
2018-11-06T08:51:43.462Z,99215.98
2018-11-06T08:57:01.995Z,99210.34
2018-11-06T09:02:20.575Z,99205.80
2018-11-06T09:07:39.344Z,99201.20
2018-11-06T09:12:57.835Z,99194.78
2018-11-06T09:18:16.366Z,99187.83
2018-11-06T09:23:35.161Z,99186.72
2018-11-06T09:28:53.913Z,99187.83
2018-11-06T09:34:12.553Z,99187.25
2018-11-06T09:39:31.109Z,99185.53
2018-11-06T09:44:49.606Z,99177.57
2018-11-06T09:50:10.735Z,99183.61
2018-11-06T09:55:29.233Z,99186.37
2018-11-06T10:00:47.796Z,99182.34
2018-11-06T10:06:06.792Z,99184.97
2018-11-06T10:11:25.528Z,99175.45
2018-11-06T10:16:44.009Z,99177.94
2018-11-06T10:22:02.557Z,99175.83
2018-11-06T10:27:21.053Z,99178.44
2018-11-06T10:32:39.708Z,99168.47
2018-11-06T10:37:58.275Z,99163.13
2018-11-06T10:43:16.727Z,99164.66
2018-11-06T10:48:35.203Z,99149.25
2018-11-06T10:53:53.717Z,99149.27
2018-11-06T10:59:12.283Z,99139.11
2018-11-06T11:04:31.413Z,99145.45
2018-11-06T11:09:49.977Z,99139.52
2018-11-06T11:15:08.577Z,99134.28
2018-11-06T11:20:27.151Z,99127.30
2018-11-06T11:25:45.631Z,99105.33
2018-11-06T11:31:04.243Z,99108.94
2018-11-06T11:36:22.741Z,99098.67
2018-11-06T11:41:41.273Z,99104.88
2018-11-06T11:46:59.788Z,99100.88
2018-11-06T11:52:18.501Z,99088.64
2018-11-06T11:57:37.043Z,99090.27
2018-11-06T12:02:55.881Z,99088.63
2018-11-06T12:08:14.499Z,99096.70
2018-11-06T12:13:33.123Z,99092.69
2018-11-06T12:18:51.657Z,99084.38
2018-11-06T12:24:10.247Z,99080.88
2018-11-06T12:29:28.710Z,99056.98
2018-11-06T12:34:47.266Z,99047.05
2018-11-06T12:40:07.150Z,99041.94
2018-11-06T12:45:26.688Z,99052.39
2018-11-06T12:50:45.206Z,99061.00
2018-11-06T12:56:04.073Z,99054.28
2018-11-06T13:01:22.555Z,99045.67
2018-11-06T13:06:41.144Z,99041.59
2018-11-06T13:12:00.056Z,99034.33
2018-11-06T13:17:18.600Z,99033.03
2018-11-06T13:22:37.321Z,99020.96
2018-11-06T13:27:56.220Z,99017.47
2018-11-06T13:33:15.232Z,99013.93
2018-11-06T13:38:35.512Z,99004.74
2018-11-06T13:43:55.094Z,99002.29
2018-11-06T13:49:14.200Z,98996.97
2018-11-06T13:54:33.342Z,99006.17
2018-11-06T13:59:52.088Z,98992.47
2018-11-06T14:05:11.035Z,98999.08
2018-11-06T14:10:29.986Z,98995.44
2018-11-06T14:15:48.522Z,98989.81
2018-11-06T14:21:10.812Z,98989.33
2018-11-06T14:27:11.361Z,98991.47
2018-11-06T14:32:43.690Z,98991.51
2018-11-06T14:38:02.258Z,98993.38
2018-11-06T14:43:21.129Z,98995.83
2018-11-06T14:48:40.060Z,98995.80
2018-11-06T14:53:58.541Z,99003.82
2018-11-06T14:59:17.297Z,99005.61
2018-11-06T15:04:35.947Z,99006.92
2018-11-06T15:09:54.949Z,98999.59
2018-11-06T15:15:14.849Z,99002.42
2018-11-06T15:20:33.672Z,98999.08
2018-11-06T15:25:52.214Z,98997.09
2018-11-06T15:31:11.032Z,98997.52
2018-11-06T15:36:29.612Z,98996.52
2018-11-06T15:41:48.251Z,98998.20
2018-11-06T15:47:06.742Z,99000.39
2018-11-06T15:52:25.462Z,98998.67
2018-11-06T15:57:43.967Z,98999.36
2018-11-06T16:03:02.516Z,99005.03
2018-11-06T16:08:21.331Z,98998.20
2018-11-06T16:13:39.818Z,98994.52
2018-11-06T16:18:58.359Z,98997.38
2018-11-06T16:24:16.877Z,99006.77
2018-11-06T16:29:35.545Z,99007.96
2018-11-06T16:34:54.046Z,99003.03
2018-11-06T16:40:13.109Z,99008.10
2018-11-06T16:45:31.770Z,98994.20
2018-11-06T16:50:50.306Z,98995.91
2018-11-06T16:56:08.976Z,99020.17
2018-11-06T17:01:27.636Z,99018.52
2018-11-06T17:06:50.115Z,99020.13
2018-11-06T17:12:08.640Z,99023.87
2018-11-06T17:17:27.849Z,99028.27
2018-11-06T17:22:46.367Z,99032.97
2018-11-06T17:28:05.044Z,99046.98
2018-11-06T17:33:24.000Z,99068.14
2018-11-06T17:38:43.507Z,99077.98
2018-11-06T17:44:02.097Z,99082.27
2018-11-06T17:49:20.647Z,99091.70
2018-11-06T17:54:39.215Z,99088.06
2018-11-06T17:59:58.023Z,99090.08
2018-11-06T18:05:17.613Z,99090.58
2018-11-06T18:10:36.274Z,99083.70
2018-11-06T18:15:54.731Z,99083.81
2018-11-06T18:21:13.558Z,99077.79
2018-11-06T18:26:32.047Z,99083.81
2018-11-06T18:31:50.692Z,99082.34
2018-11-06T18:37:09.160Z,99079.55
2018-11-06T18:42:27.947Z,99083.97
2018-11-06T18:47:46.799Z,99086.55
2018-11-06T18:53:05.391Z,99082.55
2018-11-06T18:58:23.928Z,99087.33
2018-11-06T19:03:45.432Z,99098.49
2018-11-06T19:09:05.224Z,99104.84
2018-11-06T19:14:23.762Z,99107.13
2018-11-06T19:19:42.327Z,99116.20
2018-11-06T19:25:00.819Z,99130.73
2018-11-06T19:30:20.182Z,99138.36
2018-11-06T19:35:38.709Z,99134.22
2018-11-06T19:40:57.600Z,99130.16
2018-11-06T19:46:16.202Z,99140.46
2018-11-06T19:51:36.782Z,99137.20
2018-11-06T19:56:55.414Z,99147.45
2018-11-06T20:02:13.938Z,99141.51
2018-11-06T20:07:32.510Z,99148.84
2018-11-06T20:12:52.238Z,99154.04
2018-11-06T20:18:10.777Z,99155.67
2018-11-06T20:23:30.191Z,99158.80
2018-11-06T20:28:49.033Z,99153.36
2018-11-06T20:34:07.820Z,99152.99
2018-11-06T20:39:26.483Z,99160.64
2018-11-06T20:44:45.021Z,99151.96
2018-11-06T20:50:03.657Z,99142.58
2018-11-06T20:55:22.560Z,99143.45
2018-11-06T21:00:41.187Z,99140.73
2018-11-06T21:05:59.886Z,99152.12
2018-11-06T21:11:18.509Z,99149.02
2018-11-06T21:16:37.099Z,99147.84
2018-11-06T21:21:55.729Z,99143.59
2018-11-06T21:27:14.687Z,99153.39
2018-11-06T21:32:33.231Z,99166.86
2018-11-06T21:37:51.760Z,99177.30
2018-11-06T21:43:10.816Z,99173.11
2018-11-06T21:48:29.454Z,99169.51
2018-11-06T21:53:47.970Z,99169.41
2018-11-06T21:59:10.695Z,99176.23
2018-11-06T22:04:35.614Z,99169.74
2018-11-06T22:09:54.260Z,99172.91
2018-11-06T22:15:14.235Z,99175.95
2018-11-06T22:20:33.015Z,99175.65
2018-11-06T22:25:51.525Z,99177.34
2018-11-06T22:31:10.025Z,99181.33
2018-11-06T22:36:28.904Z,99175.12
2018-11-06T22:41:47.397Z,99187.67
2018-11-06T22:47:07.372Z,99186.41
2018-11-06T22:52:25.960Z,99179.02
2018-11-06T22:57:44.747Z,99183.39
2018-11-06T23:03:07.355Z,99179.34
2018-11-06T23:08:27.158Z,99187.31
2018-11-06T23:13:45.661Z,99174.17
2018-11-06T23:19:04.759Z,99174.47
2018-11-06T23:24:23.271Z,99159.72
2018-11-06T23:29:41.835Z,99165.73
2018-11-06T23:35:00.362Z,99168.16
2018-11-06T23:40:18.853Z,99160.43
2018-11-06T23:45:37.398Z,99175.31
2018-11-06T23:50:55.887Z,99180.11
2018-11-06T23:56:14.393Z,99195.98
